Time;durP1;ratioP1;P1;durP2;ratioP2;P2;SDS_P1;SDS_P2;PMS_P1;PMS_P2;Temp;Humidity;BMP_temperature;BMP_pressure;BME280_temperature;BME280_humidity;BME280_pressure;Samples;Min_cycle;Max_cycle;Signal;HPM_P1;HPM_P2
2022/09/23 00:00:02;;;;;;;8.52;5.93;;;;;;;;;;5021389;28;20029;-77
2022/09/23 00:02:28;;;;;;;7.65;6.05;;;;;;;;;;4995652;28;20095;-78
2022/09/23 00:04:54;;;;;;;8.00;5.90;;;;;;;;;;5012805;28;20468;-79
2022/09/23 00:07:20;;;;;;;9.55;6.85;;;;;;;;;;5013463;28;20026;-79
2022/09/23 00:09:47;;;;;;;7.82;6.18;;;;;;;;;;5013357;28;20381;-79
2022/09/23 00:12:13;;;;;;;8.35;6.22;;;;;;;;;;4995033;28;20061;-79
2022/09/23 00:14:39;;;;;;;7.80;6.18;;;;;;;;;;5000590;28;20025;-80
2022/09/23 00:17:05;;;;;;;9.57;6.50;;;;;;;;;;5017621;28;20026;-80
2022/09/23 00:19:32;;;;;;;7.00;5.57;;;;;;;;;;4999842;28;20476;-80
2022/09/23 00:21:58;;;;;;;9.43;6.75;;;;;;;;;;5000351;28;20034;-80
2022/09/23 00:24:24;;;;;;;12.27;8.05;;;;;;;;;;5017478;28;20021;-80
2022/09/23 00:26:50;;;;;;;10.27;7.65;;;;;;;;;;5000368;28;20018;-81
2022/09/23 00:29:16;;;;;;;10.85;7.22;;;;;;;;;;4998893;28;20116;-80
2022/09/23 00:31:43;;;;;;;11.05;7.95;;;;;;;;;;5019351;28;20033;-81
2022/09/23 00:34:10;;;;;;;12.80;8.43;;;;;;;;;;4995969;28;20022;-79
2022/09/23 00:36:36;;;;;;;14.35;8.50;;;;;;;;;;4994328;28;20022;-78
2022/09/23 00:39:02;;;;;;;9.70;7.20;;;;;;;;;;4993987;28;20022;-79
2022/09/23 00:41:29;;;;;;;10.50;7.70;;;;;;;;;;4995721;28;20511;-79
2022/09/23 00:44:02;;;;;;;9.98;6.88;;;;;;;;;;4998264;28;20034;-80
2022/09/23 00:46:39;;;;;;;9.82;7.45;;;;;;;;;;4998744;28;20104;-80
2022/09/23 00:49:10;;;;;;;8.82;6.00;;;;;;;;;;5003667;28;20037;-79
2022/09/23 00:51:42;;;;;;;10.23;6.77;;;;;;;;;;5015236;28;20022;-79
2022/09/23 00:54:08;;;;;;;7.57;6.22;;;;;;;;;;5014565;28;20033;-79
2022/09/23 00:56:35;;;;;;;7.80;6.65;;;;;;;;;;4997478;28;20488;-79
2022/09/23 00:59:01;;;;;;;9.02;7.20;;;;;;;;;;4994060;28;20022;-79
2022/09/23 01:01:28;;;;;;;9.70;7.45;;;;;;;;;;4994004;28;20022;-79
2022/09/23 01:03:55;;;;;;;7.90;6.53;;;;;;;;;;4993984;28;20107;-79
2022/09/23 01:06:21;;;;;;;7.75;6.55;;;;;;;;;;4993975;28;20026;-79
2022/09/23 01:08:47;;;;;;;10.68;6.65;;;;;;;;;;5012059;28;20472;-78
2022/09/23 01:11:13;;;;;;;11.90;6.45;;;;;;;;;;5011893;28;20033;-78
2022/09/23 01:13:39;;;;;;;8.50;6.60;;;;;;;;;;5013088;28;20022;-78
2022/09/23 01:16:08;;;;;;;7.85;6.30;;;;;;;;;;4990195;28;20092;-78
2022/09/23 01:18:34;;;;;;;8.10;5.85;;;;;;;;;;4984809;28;20520;-79
2022/09/23 01:21:03;;;;;;;6.80;5.28;;;;;;;;;;5007365;28;20117;-80
2022/09/23 01:23:48;;;;;;;9.32;6.30;;;;;;;;;;4994395;28;20018;-79
2022/09/23 01:26:14;;;;;;;7.82;6.53;;;;;;;;;;4995284;28;20168;-79
2022/09/23 01:28:40;;;;;;;8.40;6.57;;;;;;;;;;4994496;28;20504;-79
2022/09/23 01:31:11;;;;;;;10.27;6.70;;;;;;;;;;5012235;28;20065;-79
2022/09/23 01:33:56;;;;;;;10.40;7.43;;;;;;;;;;5012200;28;20026;-79
2022/09/23 01:36:31;;;;;;;9.70;6.47;;;;;;;;;;4994479;28;20042;-79
2022/09/23 01:39:09;;;;;;;11.32;7.60;;;;;;;;;;5012060;28;20033;-79
2022/09/23 01:41:44;;;;;;;8.93;6.07;;;;;;;;;;5011485;28;20045;-79
2022/09/23 01:44:10;;;;;;;8.65;5.72;;;;;;;;;;5014895;28;20056;-79
2022/09/23 01:46:39;;;;;;;9.13;6.97;;;;;;;;;;5016443;28;20399;-79
2022/09/23 01:49:10;;;;;;;8.07;6.63;;;;;;;;;;5016102;28;20026;-79
2022/09/23 01:51:36;;;;;;;;;;;;;;;;;;5017798;28;20026;-80
2022/09/23 01:54:08;;;;;;;10.23;6.75;;;;;;;;;;5000596;28;20435;-79
2022/09/23 01:56:40;;;;;;;7.35;6.10;;;;;;;;;;4998032;28;20022;-79
2022/09/23 01:59:08;;;;;;;;;;;;;;;;;;5022288;28;20148;-78
2022/09/23 02:01:41;;;;;;;9.48;6.22;;;;;;;;;;5020133;28;20379;-80
2022/09/23 02:04:10;;;;;;;16.80;7.10;;;;;;;;;;5023187;28;20428;-79
2022/09/23 02:06:40;;;;;;;9.27;6.88;;;;;;;;;;5020876;28;20113;-79
2022/09/23 02:09:09;;;;;;;8.38;6.53;;;;;;;;;;5017038;28;20064;-79
2022/09/23 02:11:36;;;;;;;9.35;6.95;;;;;;;;;;4998554;28;20060;-77
2022/09/23 02:14:02;;;;;;;10.02;7.43;;;;;;;;;;5015774;28;20114;-77
2022/09/23 02:16:31;;;;;;;8.75;7.50;;;;;;;;;;5017517;28;20443;-78
2022/09/23 02:19:06;;;;;;;10.27;8.05;;;;;;;;;;5016221;28;20126;-79
2022/09/23 02:21:33;;;;;;;9.95;7.22;;;;;;;;;;4999883;28;20030;-79
2022/09/23 02:24:19;;;;;;;10.32;7.38;;;;;;;;;;5002704;28;20068;-79
2022/09/23 02:26:54;;;;;;;8.88;6.80;;;;;;;;;;5009545;28;20050;-79
2022/09/23 02:29:40;;;;;;;10.40;7.90;;;;;;;;;;5024573;28;20025;-79
2022/09/23 02:32:15;;;;;;;9.52;7.32;;;;;;;;;;5026129;22;20065;-72
2022/09/23 02:35:00;;;;;;;10.82;8.05;;;;;;;;;;5014086;28;20110;-72
2022/09/23 02:37:30;;;;;;;9.77;7.30;;;;;;;;;;5013857;28;20049;-72
2022/09/23 02:40:01;;;;;;;10.93;8.27;;;;;;;;;;5012655;28;20022;-72
2022/09/23 02:42:36;;;;;;;9.32;7.30;;;;;;;;;;5014000;28;20026;-72
2022/09/23 02:45:02;;;;;;;10.65;7.28;;;;;;;;;;5014245;28;20045;-72
2022/09/23 02:47:31;;;;;;;10.02;7.85;;;;;;;;;;5013592;28;20038;-72
2022/09/23 02:49:57;;;;;;;7.97;6.82;;;;;;;;;;5014176;28;20080;-72
2022/09/23 02:52:23;;;;;;;10.30;7.10;;;;;;;;;;5014377;28;20033;-72
2022/09/23 02:54:50;;;;;;;9.82;6.45;;;;;;;;;;5013853;28;20026;-72
2022/09/23 02:57:16;;;;;;;10.90;7.50;;;;;;;;;;5014026;28;20088;-72
2022/09/23 02:59:42;;;;;;;8.82;7.53;;;;;;;;;;4996280;28;20022;-73
2022/09/23 03:02:08;;;;;;;8.05;6.47;;;;;;;;;;5014160;28;20033;-72
2022/09/23 03:04:55;;;;;;;10.57;7.57;;;;;;;;;;5013876;28;20087;-72
2022/09/23 03:07:21;;;;;;;11.25;7.05;;;;;;;;;;5012842;28;20399;-71
2022/09/23 03:09:50;;;;;;;9.60;7.75;;;;;;;;;;5013288;28;20018;-72
2022/09/23 03:12:24;;;;;;;11.50;8.05;;;;;;;;;;5013495;28;20109;-72
2022/09/23 03:14:49;;;;;;;8.23;6.60;;;;;;;;;;5013441;28;20030;-72
2022/09/23 03:17:36;;;;;;;8.50;7.25;;;;;;;;;;4995408;28;20114;-72
2022/09/23 03:20:22;;;;;;;9.02;7.13;;;;;;;;;;5000385;28;20030;-72
2022/09/23 03:22:51;;;;;;;10.18;7.00;;;;;;;;;;5012963;28;20030;-72
2022/09/23 03:25:21;;;;;;;10.57;7.20;;;;;;;;;;5013308;28;20084;-72
2022/09/23 03:27:47;;;;;;;9.07;7.50;;;;;;;;;;5012339;28;20091;-72
2022/09/23 03:30:13;;;;;;;9.00;7.07;;;;;;;;;;5012880;28;20758;-72
2022/09/23 03:32:42;;;;;;;13.15;7.68;;;;;;;;;;5011377;28;20030;-73
2022/09/23 03:35:08;;;;;;;8.73;6.97;;;;;;;;;;5013119;28;20030;-72
2022/09/23 03:37:37;;;;;;;10.05;7.15;;;;;;;;;;5012250;28;20373;-72
2022/09/23 03:40:11;;;;;;;11.48;7.78;;;;;;;;;;5013458;28;20056;-72
2022/09/23 03:42:38;;;;;;;9.20;7.13;;;;;;;;;;4994849;28;20057;-72
2022/09/23 03:45:08;;;;;;;10.05;6.40;;;;;;;;;;5013122;28;20037;-72
2022/09/23 03:47:34;;;;;;;9.27;7.50;;;;;;;;;;5012239;28;20061;-72
2022/09/23 03:50:00;;;;;;;8.80;6.75;;;;;;;;;;5012818;28;20387;-72
2022/09/23 03:52:27;;;;;;;15.77;8.20;;;;;;;;;;5012764;28;20030;-72
2022/09/23 03:54:53;;;;;;;8.20;6.97;;;;;;;;;;5012618;28;20522;-72
2022/09/23 03:57:20;;;;;;;10.23;7.72;;;;;;;;;;5011791;28;20077;-71
2022/09/23 03:59:47;;;;;;;9.15;6.60;;;;;;;;;;5012181;28;20398;-71
2022/09/23 04:02:15;;;;;;;10.38;7.70;;;;;;;;;;5012535;28;20399;-72
2022/09/23 04:04:41;;;;;;;13.23;8.05;;;;;;;;;;5012359;28;20022;-72
2022/09/23 04:07:07;;;;;;;9.05;7.25;;;;;;;;;;5011769;28;20022;-71
2022/09/23 04:09:33;;;;;;;9.82;7.32;;;;;;;;;;5012536;28;20472;-73
2022/09/23 04:11:59;;;;;;;9.88;6.70;;;;;;;;;;4994572;28;20032;-73
2022/09/23 04:14:25;;;;;;;9.00;6.80;;;;;;;;;;5012271;28;20125;-72
2022/09/23 04:16:52;;;;;;;11.10;7.53;;;;;;;;;;5012280;28;20021;-73
2022/09/23 04:19:18;;;;;;;11.02;7.22;;;;;;;;;;5011263;28;20506;-72
2022/09/23 04:21:44;;;;;;;8.93;6.93;;;;;;;;;;4994555;28;20049;-72
2022/09/23 04:24:11;;;;;;;10.32;7.55;;;;;;;;;;5012157;28;20052;-72
2022/09/23 04:26:37;;;;;;;9.30;7.45;;;;;;;;;;4994318;28;20061;-73
2022/09/23 04:29:03;;;;;;;10.80;6.55;;;;;;;;;;5011230;28;20564;-72
2022/09/23 04:31:30;;;;;;;11.77;7.10;;;;;;;;;;5011792;28;20021;-71
2022/09/23 04:33:57;;;;;;;10.13;7.65;;;;;;;;;;5011914;28;20113;-71
2022/09/23 04:36:23;;;;;;;9.70;7.80;;;;;;;;;;5011803;28;20092;-72
2022/09/23 04:38:49;;;;;;;8.40;6.60;;;;;;;;;;5011002;28;20084;-72
2022/09/23 04:41:16;;;;;;;10.32;7.65;;;;;;;;;;5010403;28;20362;-72
2022/09/23 04:43:42;;;;;;;11.90;8.02;;;;;;;;;;5011793;28;20476;-72
2022/09/23 04:46:10;;;;;;;11.85;7.70;;;;;;;;;;5010025;28;20577;-72
2022/09/23 04:48:36;;;;;;;9.20;7.70;;;;;;;;;;5010950;28;20022;-73
2022/09/23 04:51:03;;;;;;;11.35;7.05;;;;;;;;;;5011419;28;20110;-72
2022/09/23 04:53:29;;;;;;;13.15;7.47;;;;;;;;;;5011359;28;20075;-72
2022/09/23 04:56:00;;;;;;;10.68;7.90;;;;;;;;;;5011330;28;20022;-72
2022/09/23 04:58:27;;;;;;;10.68;8.05;;;;;;;;;;5010640;28;20013;-72
2022/09/23 05:00:54;;;;;;;10.82;7.97;;;;;;;;;;5011447;28;20025;-73
2022/09/23 05:03:20;;;;;;;10.68;7.75;;;;;;;;;;5011564;28;20030;-72
2022/09/23 05:05:46;;;;;;;12.73;8.55;;;;;;;;;;5011527;28;20026;-71
2022/09/23 05:08:12;;;;;;;10.88;8.35;;;;;;;;;;5010593;28;20115;-73
2022/09/23 05:10:38;;;;;;;15.73;11.10;;;;;;;;;;5011342;28;20472;-74
2022/09/23 05:13:03;;;;;;;18.10;12.65;;;;;;;;;;5011185;28;20487;-73
2022/09/23 05:15:29;;;;;;;15.88;11.15;;;;;;;;;;5011255;28;20026;-74
2022/09/23 05:17:58;;;;;;;15.82;10.38;;;;;;;;;;5009584;28;20022;-75
2022/09/23 05:20:24;;;;;;;11.32;8.85;;;;;;;;;;5010919;28;20029;-74
2022/09/23 05:22:54;;;;;;;11.20;7.53;;;;;;;;;;5010581;28;20048;-74
2022/09/23 05:25:22;;;;;;;11.05;7.40;;;;;;;;;;4993069;28;20018;-72
2022/09/23 05:27:48;;;;;;;14.90;6.60;;;;;;;;;;4992609;28;20026;-72
2022/09/23 05:30:14;;;;;;;11.75;5.82;;;;;;;;;;5011154;28;20038;-72
2022/09/23 05:32:40;;;;;;;8.10;5.65;;;;;;;;;;5009264;28;20084;-73
2022/09/23 05:35:06;;;;;;;8.77;4.78;;;;;;;;;;5010976;28;20024;-72
2022/09/23 05:37:32;;;;;;;5.75;4.20;;;;;;;;;;5010251;28;20487;-73
2022/09/23 05:39:58;;;;;;;5.97;4.22;;;;;;;;;;5010994;28;20034;-73
2022/09/23 05:42:24;;;;;;;9.88;3.83;;;;;;;;;;5011011;28;20075;-73
2022/09/23 05:44:51;;;;;;;7.00;3.65;;;;;;;;;;5010727;28;20480;-74
2022/09/23 05:47:17;;;;;;;6.28;3.22;;;;;;;;;;5010143;28;20040;-72
2022/09/23 05:49:43;;;;;;;5.03;3.30;;;;;;;;;;5009201;28;20026;-73
2022/09/23 05:52:09;;;;;;;5.35;3.42;;;;;;;;;;5009448;28;20060;-73
2022/09/23 05:54:35;;;;;;;4.60;2.95;;;;;;;;;;5010745;28;20072;-73
2022/09/23 05:57:02;;;;;;;5.28;2.78;;;;;;;;;;5010292;28;20030;-72
2022/09/23 05:59:28;;;;;;;3.75;2.97;;;;;;;;;;5009061;28;20038;-72
2022/09/23 06:01:55;;;;;;;3.65;3.03;;;;;;;;;;5011301;28;20148;-73
2022/09/23 06:04:21;;;;;;;3.75;3.00;;;;;;;;;;5010472;28;20027;-73
2022/09/23 06:06:47;;;;;;;6.00;3.22;;;;;;;;;;5010852;28;20018;-74
2022/09/23 06:09:14;;;;;;;3.38;2.60;;;;;;;;;;5010187;28;20149;-75
2022/09/23 06:11:40;;;;;;;4.47;3.08;;;;;;;;;;5010506;28;20104;-74
2022/09/23 06:14:08;;;;;;;2.95;2.67;;;;;;;;;;5010870;28;20096;-72
2022/09/23 06:16:35;;;;;;;4.63;2.92;;;;;;;;;;5010401;28;20106;-74
2022/09/23 06:19:04;;;;;;;5.88;3.20;;;;;;;;;;5009821;28;20048;-73
2022/09/23 06:21:30;;;;;;;4.43;3.00;;;;;;;;;;5010308;28;20065;-73
2022/09/23 06:24:00;;;;;;;3.35;3.00;;;;;;;;;;5010516;28;20510;-73
2022/09/23 06:26:29;;;;;;;8.15;3.05;;;;;;;;;;5010279;28;20018;-74
2022/09/23 06:28:56;;;;;;;4.38;3.30;;;;;;;;;;5008451;28;20091;-73
2022/09/23 06:31:22;;;;;;;6.15;3.22;;;;;;;;;;4995215;28;20554;-72
2022/09/23 06:33:49;;;;;;;5.72;3.60;;;;;;;;;;5014071;28;20034;-73
2022/09/23 06:36:15;;;;;;;5.75;3.60;;;;;;;;;;5014146;28;20396;-72
2022/09/23 06:38:47;;;;;;;5.60;3.72;;;;;;;;;;5011713;28;20022;-73
2022/09/23 06:41:13;;;;;;;6.32;3.95;;;;;;;;;;5013918;28;20030;-73
2022/09/23 06:43:39;;;;;;;4.75;3.53;;;;;;;;;;5014106;28;20029;-73
2022/09/23 06:46:06;;;;;;;4.40;3.30;;;;;;;;;;5013470;28;20030;-73
2022/09/23 06:48:34;;;;;;;4.93;3.35;;;;;;;;;;5011854;28;20022;-75
2022/09/23 06:51:01;;;;;;;5.20;3.33;;;;;;;;;;5013630;28;20026;-74
2022/09/23 06:53:30;;;;;;;4.55;3.50;;;;;;;;;;5012316;28;20018;-74
2022/09/23 06:56:04;;;;;;;5.97;3.88;;;;;;;;;;5013227;28;20029;-74
2022/09/23 06:58:31;;;;;;;5.03;3.70;;;;;;;;;;5013273;28;20053;-73
2022/09/23 07:01:01;;;;;;;6.05;3.58;;;;;;;;;;5013304;28;20022;-74
2022/09/23 07:03:27;;;;;;;3.78;2.92;;;;;;;;;;5013829;28;20530;-75
2022/09/23 07:05:56;;;;;;;5.10;3.22;;;;;;;;;;4995713;28;20166;-71
2022/09/23 07:08:23;;;;;;;4.93;3.30;;;;;;;;;;5012660;28;20022;-75
2022/09/23 07:10:53;;;;;;;3.85;2.92;;;;;;;;;;5013334;28;20022;-73
2022/09/23 07:13:19;;;;;;;6.70;3.35;;;;;;;;;;5012962;28;20026;-74
2022/09/23 07:15:49;;;;;;;5.05;3.20;;;;;;;;;;5012328;28;20152;-74
2022/09/23 07:18:15;;;;;;;9.10;3.30;;;;;;;;;;5011364;28;20036;-74
2022/09/23 07:20:41;;;;;;;4.20;2.97;;;;;;;;;;5013416;28;20107;-75
2022/09/23 07:23:07;;;;;;;6.15;3.33;;;;;;;;;;5013143;28;20467;-75
2022/09/23 07:25:33;;;;;;;5.95;3.47;;;;;;;;;;5013535;28;20018;-76
2022/09/23 07:27:59;;;;;;;3.88;2.95;;;;;;;;;;5012078;28;20014;-73
2022/09/23 07:30:26;;;;;;;3.38;2.80;;;;;;;;;;4995096;28;20026;-73
2022/09/23 07:32:52;;;;;;;4.05;2.67;;;;;;;;;;5012537;28;20037;-73
2022/09/23 07:35:18;;;;;;;4.15;3.03;;;;;;;;;;4995298;28;20025;-71
2022/09/23 07:37:45;;;;;;;3.63;3.00;;;;;;;;;;5011992;28;20456;-71
2022/09/23 07:40:11;;;;;;;3.90;3.50;;;;;;;;;;4995131;28;20032;-71
2022/09/23 07:42:39;;;;;;;6.95;3.78;;;;;;;;;;4994331;28;20042;-72
2022/09/23 07:45:06;;;;;;;6.45;3.88;;;;;;;;;;4995119;28;20033;-72
2022/09/23 07:47:32;;;;;;;6.03;3.58;;;;;;;;;;5011891;28;20041;-72
2022/09/23 07:49:58;;;;;;;4.85;3.65;;;;;;;;;;5012524;28;20144;-72
2022/09/23 07:52:24;;;;;;;11.05;3.92;;;;;;;;;;5013560;28;20527;-72
2022/09/23 07:54:50;;;;;;;6.53;3.45;;;;;;;;;;5008709;28;20048;-73
2022/09/23 07:57:16;;;;;;;4.32;3.22;;;;;;;;;;5012829;28;20452;-72
2022/09/23 07:59:42;;;;;;;4.75;3.63;;;;;;;;;;5011178;28;20100;-73
2022/09/23 08:02:09;;;;;;;4.05;3.03;;;;;;;;;;5017460;28;20042;-72
2022/09/23 08:04:35;;;;;;;5.07;3.38;;;;;;;;;;4995988;28;20026;-73
2022/09/23 08:07:02;;;;;;;5.43;3.75;;;;;;;;;;4992917;28;20302;-75
2022/09/23 08:09:30;;;;;;;6.50;3.70;;;;;;;;;;5022134;28;20029;-74
2022/09/23 08:11:57;;;;;;;6.32;4.03;;;;;;;;;;5012208;28;20517;-76
2022/09/23 08:14:23;;;;;;;6.30;3.58;;;;;;;;;;5011193;28;20026;-76
2022/09/23 08:16:49;;;;;;;4.78;3.63;;;;;;;;;;5011283;28;20018;-76
2022/09/23 08:19:15;;;;;;;4.72;3.47;;;;;;;;;;5010400;28;20095;-76
2022/09/23 08:21:41;;;;;;;7.68;3.22;;;;;;;;;;4993509;28;20026;-76
2022/09/23 08:24:08;;;;;;;3.90;3.38;;;;;;;;;;5011269;28;20156;-77
2022/09/23 08:26:35;;;;;;;4.75;4.05;;;;;;;;;;5010545;28;20044;-74
2022/09/23 08:29:01;;;;;;;6.97;3.47;;;;;;;;;;5008921;28;20041;-75
2022/09/23 08:31:27;;;;;;;5.13;3.55;;;;;;;;;;5009989;28;20498;-73
2022/09/23 08:33:54;;;;;;;5.65;3.70;;;;;;;;;;5047413;22;20057;-76
2022/09/23 08:36:20;;;;;;;4.38;3.40;;;;;;;;;;5028891;28;20036;-77
2022/09/23 08:38:46;;;;;;;5.15;3.47;;;;;;;;;;5029963;28;20025;-76
2022/09/23 08:41:12;;;;;;;6.20;3.42;;;;;;;;;;5029322;28;20075;-74
2022/09/23 08:43:42;;;;;;;5.70;2.78;;;;;;;;;;5028008;28;20539;-73
2022/09/23 08:46:09;;;;;;;7.25;3.47;;;;;;;;;;5028570;28;20036;-74
2022/09/23 08:48:38;;;;;;;7.00;4.07;;;;;;;;;;5029296;28;20018;-70
2022/09/23 08:51:05;;;;;;;5.05;3.17;;;;;;;;;;5029600;28;20041;-73
2022/09/23 08:53:33;;;;;;;5.95;3.53;;;;;;;;;;5029557;28;20032;-74
2022/09/23 08:56:00;;;;;;;4.45;3.03;;;;;;;;;;5012122;28;20029;-75
2022/09/23 08:58:36;;;;;;;5.68;3.15;;;;;;;;;;5029439;28;20037;-74
2022/09/23 09:01:08;;;;;;;4.03;2.92;;;;;;;;;;5030028;28;20057;-71
2022/09/23 09:03:36;;;;;;;5.13;3.10;;;;;;;;;;5030336;28;20056;-74
2022/09/23 09:06:02;;;;;;;3.75;3.13;;;;;;;;;;5011524;28;20124;-74
2022/09/23 09:08:32;;;;;;;4.22;2.85;;;;;;;;;;5012272;28;20489;-76
2022/09/23 09:11:01;;;;;;;8.00;3.15;;;;;;;;;;5041025;28;20218;-75
2022/09/23 09:13:42;;;;;;;7.05;3.47;;;;;;;;;;5045128;28;20053;-76
2022/09/23 09:16:27;;;;;;;6.05;2.80;;;;;;;;;;5038072;28;20028;-77
2022/09/23 09:18:54;;;;;;;3.55;3.15;;;;;;;;;;5041297;28;20028;-76
2022/09/23 09:21:33;;;;;;;6.75;3.60;;;;;;;;;;5047695;28;20048;-76
2022/09/23 09:23:59;;;;;;;17.23;12.50;;;;;;;;;;5010474;28;20025;-76
2022/09/23 09:26:26;;;;;;;33.30;22.05;;;;;;;;;;5036984;28;20025;-75
2022/09/23 09:29:12;;;;;;;7.20;4.18;;;;;;;;;;5031709;28;20026;-74
2022/09/23 09:31:38;;;;;;;5.50;3.13;;;;;;;;;;5029097;28;20079;-75
2022/09/23 09:34:06;;;;;;;30.35;20.33;;;;;;;;;;5045317;28;20457;-74
2022/09/23 09:36:34;;;;;;;6.10;3.10;;;;;;;;;;5036632;28;20025;-73
2022/09/23 09:39:00;;;;;;;5.88;3.20;;;;;;;;;;5030940;28;20052;-75
2022/09/23 09:41:30;;;;;;;5.78;3.13;;;;;;;;;;5039339;28;20024;-75
2022/09/23 09:43:58;;;;;;;7.07;2.90;;;;;;;;;;5043249;28;20062;-75
2022/09/23 09:46:32;;;;;;;3.70;3.00;;;;;;;;;;5036296;28;20095;-75
2022/09/23 09:49:02;;;;;;;6.38;2.83;;;;;;;;;;5030731;28;20029;-75
2022/09/23 09:51:28;;;;;;;3.63;2.35;;;;;;;;;;5042465;28;20025;-75
2022/09/23 09:53:55;;;;;;;4.68;2.63;;;;;;;;;;5025226;28;20532;-75
2022/09/23 09:56:30;;;;;;;3.70;2.30;;;;;;;;;;5036528;28;20071;-76
2022/09/23 09:59:16;;;;;;;3.17;2.20;;;;;;;;;;5013543;28;20029;-76
2022/09/23 10:01:42;;;;;;;4.53;2.60;;;;;;;;;;5043529;28;20091;-76
2022/09/23 10:04:17;;;;;;;3.60;2.40;;;;;;;;;;5044269;28;20025;-73
2022/09/23 10:07:02;;;;;;;7.07;3.33;;;;;;;;;;5029193;28;20097;-78
2022/09/23 10:09:32;;;;;;;3.85;2.63;;;;;;;;;;5035175;28;20079;-77
2022/09/23 10:12:10;;;;;;;3.30;2.53;;;;;;;;;;5049849;28;20029;-73
2022/09/23 10:14:36;;;;;;;5.35;2.42;;;;;;;;;;5043409;28;20475;-77
2022/09/23 10:17:04;;;;;;;5.05;2.72;;;;;;;;;;5037723;28;20072;-76
2022/09/23 10:19:31;;;;;;;3.53;2.33;;;;;;;;;;5035347;28;20025;-77
2022/09/23 10:22:03;;;;;;;3.03;2.28;;;;;;;;;;5049384;28;20053;-77
2022/09/23 10:24:31;;;;;;;2.75;2.08;;;;;;;;;;5026568;28;20048;-77
2022/09/23 10:26:57;;;;;;;10.45;2.42;;;;;;;;;;5037746;28;20108;-77
2022/09/23 10:29:33;;;;;;;2.17;1.60;;;;;;;;;;5016389;28;20029;-77
2022/09/23 10:32:18;;;;;;;7.05;1.83;;;;;;;;;;5027263;28;20107;-77
2022/09/23 10:34:45;;;;;;;4.80;1.52;;;;;;;;;;5024226;28;20075;-78
2022/09/23 10:37:17;;;;;;;3.97;1.85;;;;;;;;;;5037619;28;20519;-80
2022/09/23 10:48:10;;;;;;;;;;;;;;;;;;5033288;28;20582;-76
2022/09/23 10:50:47;;;;;;;4.65;1.80;;;;;;;;;;5045316;28;19987;-79
2022/09/23 10:53:19;;;;;;;2.97;1.73;;;;;;;;;;5044232;28;20108;-78
2022/09/23 10:55:51;;;;;;;4.68;1.80;;;;;;;;;;5025407;28;20026;-77
2022/09/23 10:58:22;;;;;;;2.95;1.85;;;;;;;;;;5034744;28;20021;-76
2022/09/23 11:01:04;;;;;;;2.08;1.60;;;;;;;;;;5044952;28;20025;-77
2022/09/23 11:03:37;;;;;;;3.28;1.80;;;;;;;;;;5041159;28;20018;-76
2022/09/23 11:06:41;;;;;;;3.55;1.80;;;;;;;;;;5043001;28;20407;-77
2022/09/23 11:09:25;;;;;;;2.15;1.75;;;;;;;;;;4953835;28;20031;-77
2022/09/23 11:11:54;;;;;;;11.48;7.25;;;;;;;;;;4944296;28;20067;-78
2022/09/23 11:14:37;;;;;;;2.97;1.25;;;;;;;;;;5008546;28;20037;-72
2022/09/23 11:17:22;;;;;;;4.32;2.05;;;;;;;;;;5035250;28;20507;-71
2022/09/23 11:20:04;;;;;;;2.70;1.58;;;;;;;;;;5018623;28;20028;-73
2022/09/23 11:22:36;;;;;;;2.20;1.35;;;;;;;;;;5048392;28;20041;-72
2022/09/23 11:25:18;;;;;;;3.63;1.77;;;;;;;;;;5032614;28;20047;-73
2022/09/23 11:28:02;;;;;;;4.18;1.98;;;;;;;;;;5036636;28;20025;-74
2022/09/23 11:30:42;;;;;;;3.90;1.65;;;;;;;;;;5041132;28;20033;-73
2022/09/23 11:33:12;;;;;;;2.97;1.70;;;;;;;;;;5042624;28;20037;-73
2022/09/23 11:35:40;;;;;;;2.42;1.77;;;;;;;;;;5040358;28;20030;-74
2022/09/23 11:38:32;;;;;;;1.85;1.50;;;;;;;;;;5034204;28;20013;-74
2022/09/23 11:41:01;;;;;;;5.35;1.75;;;;;;;;;;5040500;28;20037;-74
2022/09/23 11:43:34;;;;;;;3.67;1.30;;;;;;;;;;5041953;28;20018;-73
2022/09/23 11:46:23;;;;;;;3.90;1.20;;;;;;;;;;5041018;28;20104;-73
2022/09/23 11:48:52;;;;;;;4.25;1.40;;;;;;;;;;5021887;28;20041;-73
2022/09/23 11:51:22;;;;;;;3.55;1.50;;;;;;;;;;5044038;28;20048;-73
2022/09/23 11:53:52;;;;;;;1.80;1.35;;;;;;;;;;5044154;28;20567;-73
2022/09/23 11:56:26;;;;;;;3.47;1.92;;;;;;;;;;5020621;28;20072;-77
2022/09/23 11:59:15;;;;;;;1.75;1.30;;;;;;;;;;5032276;28;20024;-77
2022/09/23 12:01:45;;;;;;;1.40;1.20;;;;;;;;;;5039488;28;20124;-75
2022/09/23 12:04:11;;;;;;;3.35;1.15;;;;;;;;;;5044802;28;20391;-76
2022/09/23 12:06:43;;;;;;;5.40;1.45;;;;;;;;;;5018397;28;20022;-77
2022/09/23 12:09:15;;;;;;;3.40;1.38;;;;;;;;;;5032582;28;20049;-78
2022/09/23 12:11:41;;;;;;;;;;;;;;;;;;5046905;28;20376;-77
2022/09/23 12:14:21;;;;;;;2.92;1.38;;;;;;;;;;5044987;28;19904;-77
2022/09/23 12:17:06;;;;;;;3.28;1.58;;;;;;;;;;5027482;28;20472;-77
2022/09/23 12:20:05;;;;;;;3.65;1.27;;;;;;;;;;5015699;28;20021;-78
2022/09/23 12:22:31;;;;;;;5.38;1.48;;;;;;;;;;4999441;28;20581;-79
2022/09/23 12:25:07;;;;;;;1.75;1.20;;;;;;;;;;5038562;28;20112;-73
2022/09/23 12:27:43;;;;;;;4.30;1.63;;;;;;;;;;5034349;28;20097;-73
2022/09/23 12:30:29;;;;;;;4.72;0.90;;;;;;;;;;5015025;28;20131;-74
2022/09/23 12:33:08;;;;;;;1.33;1.10;;;;;;;;;;5043700;28;20409;-74
2022/09/23 12:35:37;;;;;;;2.53;1.23;;;;;;;;;;5038908;28;20060;-75
2022/09/23 12:38:12;;;;;;;4.82;1.60;;;;;;;;;;5015412;28;20475;-73
2022/09/23 12:40:40;;;;;;;5.32;1.33;;;;;;;;;;5041263;28;20021;-74
2022/09/23 12:43:14;;;;;;;2.33;1.23;;;;;;;;;;5042472;28;20021;-74
2022/09/23 12:45:44;;;;;;;1.75;1.23;;;;;;;;;;5042528;28;20033;-73
2022/09/23 12:48:30;;;;;;;2.85;1.20;;;;;;;;;;5037175;28;20025;-73
2022/09/23 12:51:02;;;;;;;2.55;1.35;;;;;;;;;;5010234;28;20040;-72
2022/09/23 12:53:34;;;;;;;3.88;1.50;;;;;;;;;;5047925;28;20377;-73
2022/09/23 12:56:01;;;;;;;1.92;1.45;;;;;;;;;;5027050;28;20021;-73
2022/09/23 12:58:50;;;;;;;4.20;1.35;;;;;;;;;;5033167;28;20036;-73
2022/09/23 13:01:18;;;;;;;2.80;1.35;;;;;;;;;;5038926;28;20037;-74
2022/09/23 13:06:39;;;;;;;3.17;1.40;;;;;;;;;;5035339;28;20500;-73
2022/09/23 13:09:13;;;;;;;3.30;1.33;;;;;;;;;;5031195;28;20033;-74
2022/09/23 13:11:42;;;;;;;4.43;1.50;;;;;;;;;;5044533;28;20025;-75
2022/09/23 13:14:10;;;;;;;2.20;1.33;;;;;;;;;;5043426;28;20086;-73
2022/09/23 13:16:44;;;;;;;1.05;0.80;;;;;;;;;;5034459;28;20025;-73
2022/09/23 13:19:25;;;;;;;3.13;1.35;;;;;;;;;;5030856;28;20040;-73
2022/09/23 13:22:07;;;;;;;2.60;1.35;;;;;;;;;;5034133;28;20059;-74
2022/09/23 13:24:51;;;;;;;1.90;1.58;;;;;;;;;;5022944;28;20044;-74
2022/09/23 13:27:20;;;;;;;2.47;1.50;;;;;;;;;;5033584;28;20607;-74
2022/09/23 13:30:00;;;;;;;2.38;1.00;;;;;;;;;;5034222;28;20141;-72
2022/09/23 13:32:28;;;;;;;2.97;1.58;;;;;;;;;;5047056;28;20033;-74
2022/09/23 13:35:00;;;;;;;2.15;1.35;;;;;;;;;;5019825;28;20040;-73
2022/09/23 13:37:46;;;;;;;1.50;1.30;;;;;;;;;;5033778;28;20025;-74
2022/09/23 13:40:18;;;;;;;3.33;1.38;;;;;;;;;;5010117;28;20032;-74
2022/09/23 13:42:46;;;;;;;1.33;1.10;;;;;;;;;;5048022;28;20403;-75
2022/09/23 13:45:17;;;;;;;2.00;1.10;;;;;;;;;;5023606;28;20368;-73
2022/09/23 13:47:44;;;;;;;1.27;1.10;;;;;;;;;;5038430;28;20499;-74
2022/09/23 13:50:21;;;;;;;1.63;1.20;;;;;;;;;;5040527;28;20477;-74
2022/09/23 13:52:52;;;;;;;2.25;1.20;;;;;;;;;;5048068;28;20124;-74
2022/09/23 13:55:25;;;;;;;1.40;1.15;;;;;;;;;;5040786;28;20030;-73
2022/09/23 13:58:18;;;;;;;1.55;1.40;;;;;;;;;;5013027;28;20032;-74
2022/09/23 14:00:44;;;;;;;4.60;1.10;;;;;;;;;;5041153;28;20044;-73
2022/09/23 14:03:17;;;;;;;1.27;0.90;;;;;;;;;;5044449;28;20028;-73
2022/09/23 14:05:43;;;;;;;4.75;1.25;;;;;;;;;;5043584;28;20396;-72
2022/09/23 14:08:10;;;;;;;2.08;1.20;;;;;;;;;;5035610;28;20103;-74
2022/09/23 14:10:38;;;;;;;3.85;1.20;;;;;;;;;;5043483;28;20040;-75
2022/09/23 14:13:04;;;;;;;1.35;0.98;;;;;;;;;;5027080;28;20372;-74
2022/09/23 14:15:30;;;;;;;3.03;1.50;;;;;;;;;;5024308;28;20029;-72
2022/09/23 14:18:02;;;;;;;1.42;1.33;;;;;;;;;;5019229;28;20450;-73
2022/09/23 14:20:28;;;;;;;2.38;1.70;;;;;;;;;;5042314;28;20024;-72
2022/09/23 14:23:09;;;;;;;1.52;1.35;;;;;;;;;;5046272;28;20060;-74
2022/09/23 14:25:35;;;;;;;4.85;1.67;;;;;;;;;;5039373;28;20048;-72
2022/09/23 14:28:01;;;;;;;2.15;1.73;;;;;;;;;;5033810;28;20492;-73
2022/09/23 14:30:27;;;;;;;2.72;1.30;;;;;;;;;;5024053;28;20036;-73
2022/09/23 14:32:54;;;;;;;3.22;1.60;;;;;;;;;;5066882;22;20057;-71
2022/09/23 14:35:27;;;;;;;3.33;1.20;;;;;;;;;;5040197;28;20052;-72
2022/09/23 14:41:14;;;;;;;1.70;1.30;;;;;;;;;;5043556;28;20075;-73
2022/09/23 14:43:39;;;;;;;1.80;1.50;;;;;;;;;;5042738;28;20030;-72
2022/09/23 14:46:05;;;;;;;3.97;1.58;;;;;;;;;;5041746;28;20017;-73
2022/09/23 14:48:33;;;;;;;2.10;1.50;;;;;;;;;;5033901;28;20025;-72
2022/09/23 14:51:02;;;;;;;5.35;1.50;;;;;;;;;;5044333;28;20040;-72
2022/09/23 14:53:30;;;;;;;1.95;1.67;;;;;;;;;;5031804;28;20018;-72
2022/09/23 14:56:07;;;;;;;2.58;1.75;;;;;;;;;;5034650;28;20391;-71
2022/09/23 14:58:52;;;;;;;3.33;1.65;;;;;;;;;;5033009;28;20009;-73
2022/09/23 15:01:30;;;;;;;2.72;1.40;;;;;;;;;;5043284;28;20026;-74
2022/09/23 15:03:57;;;;;;;1.58;1.20;;;;;;;;;;5026670;28;20033;-72
2022/09/23 15:06:23;;;;;;;2.75;1.45;;;;;;;;;;5037229;28;20029;-72
2022/09/23 15:08:50;;;;;;;3.83;1.70;;;;;;;;;;5031751;28;20029;-72
2022/09/23 15:11:16;;;;;;;1.85;1.48;;;;;;;;;;5043081;28;20017;-74